Terminal Aerodrome Forecast
Issued by NWS

Home | Current Version | Previous Version | Graphics & Text | Print | Product List | Glossary On
Versions: 1 2 3 4 5 6 7 8 9 10 11 12 13 14 15 16 17 18 19 20 21 22 23 24 25 26 27 28 29 30 31 32 33
000
FTUS43 KLOT 261130
TAFORD
TAF
KORD 261130Z 2612/2718 05010KT 2SM BR OVC003
      TEMPO 2612/2613 3/4SM BR
     FM261400 05011KT 5SM BR OVC005
     FM261600 05013KT P6SM OVC015
     FM270200 07013KT P6SM BKN025 OVC050
     FM271500 07016KT P6SM SCT025 OVC150=

USA.gov is the U.S. government's official web portal to all federal, state and local government web resources and services.